createdAt,value
2019-01-03T00:02:35.654Z,4.00
2019-01-03T00:05:06.137Z,4.00
2019-01-03T00:07:54.544Z,3.90
2019-01-03T00:10:36.814Z,3.90
2019-01-03T00:13:15.821Z,3.90
2019-01-03T00:15:45.899Z,3.80
2019-01-03T00:18:21.848Z,3.80
2019-01-03T00:21:08.356Z,3.80
2019-01-03T00:23:47.478Z,3.80
2019-01-03T00:26:33.970Z,3.70
2019-01-03T00:29:13.305Z,3.70
2019-01-03T00:31:55.869Z,3.70
2019-01-03T00:34:28.683Z,3.70
2019-01-03T00:37:15.513Z,3.70
2019-01-03T00:39:45.594Z,3.60
2019-01-03T00:42:27.257Z,3.60
2019-01-03T00:45:13.846Z,3.60
2019-01-03T00:47:46.800Z,3.60
2019-01-03T00:50:16.939Z,3.60
2019-01-03T00:52:55.690Z,3.70
2019-01-03T00:55:31.749Z,3.70
2019-01-03T00:58:13.911Z,3.70
2019-01-03T01:00:51.202Z,3.70
2019-01-03T01:03:21.492Z,3.60
2019-01-03T01:06:06.898Z,3.60
2019-01-03T01:08:53.266Z,3.60
2019-01-03T01:11:32.174Z,3.60
2019-01-03T01:14:17.567Z,3.60
2019-01-03T01:16:53.842Z,3.50
2019-01-03T01:19:27.023Z,3.50
2019-01-03T01:22:09.379Z,3.50
2019-01-03T01:24:56.076Z,3.50
2019-01-03T01:27:27.520Z,3.40
2019-01-03T01:30:00.435Z,3.50
2019-01-03T01:32:39.046Z,3.50
2019-01-03T01:35:25.783Z,3.50
2019-01-03T01:38:12.633Z,3.50
2019-01-03T01:40:57.759Z,3.50
2019-01-03T01:43:28.175Z,3.50
2019-01-03T01:46:04.396Z,3.50
2019-01-03T01:48:46.160Z,3.50
2019-01-03T01:51:32.743Z,3.60
2019-01-03T01:54:02.842Z,3.60
2019-01-03T01:56:32.917Z,3.60
2019-01-03T01:59:05.980Z,3.60
2019-01-03T02:01:36.099Z,3.70
2019-01-03T02:04:06.171Z,3.70
2019-01-03T02:06:36.327Z,3.70
2019-01-03T02:09:10.924Z,3.70
2019-01-03T02:11:40.985Z,3.70
2019-01-03T02:14:16.879Z,3.80
2019-01-03T02:17:03.035Z,3.80
2019-01-03T02:19:42.451Z,3.90
2019-01-03T02:22:21.151Z,4.00
2019-01-03T02:24:59.732Z,4.00
2019-01-03T02:27:32.879Z,4.10
2019-01-03T02:30:12.037Z,4.10
2019-01-03T02:32:58.623Z,4.10
2019-01-03T02:35:45.104Z,4.20
2019-01-03T02:38:24.124Z,4.20
2019-01-03T02:41:12.196Z,4.20
2019-01-03T02:43:46.716Z,4.30
2019-01-03T02:46:33.119Z,4.30
2019-01-03T02:49:19.716Z,4.40
2019-01-03T02:51:52.663Z,4.40
2019-01-03T02:54:40.330Z,4.40
2019-01-03T02:57:17.595Z,4.40
2019-01-03T03:00:03.904Z,4.40
2019-01-03T03:02:36.783Z,4.30
2019-01-03T03:05:19.665Z,4.40
2019-01-03T03:07:52.577Z,4.40
2019-01-03T03:10:37.913Z,4.40
2019-01-03T03:13:13.747Z,4.40
2019-01-03T03:15:46.549Z,4.40
2019-01-03T03:18:16.632Z,4.40
2019-01-03T03:21:05.002Z,4.40
2019-01-03T03:23:41.189Z,4.40
2019-01-03T03:26:11.359Z,4.40
2019-01-03T03:28:57.482Z,4.40
2019-01-03T03:31:45.504Z,4.50
2019-01-03T03:34:15.578Z,4.50
2019-01-03T03:36:45.766Z,4.40
2019-01-03T03:39:24.931Z,4.40
2019-01-03T03:42:11.539Z,4.50
2019-01-03T03:44:44.331Z,4.60
2019-01-03T03:47:14.607Z,4.50
2019-01-03T03:49:47.117Z,4.50
2019-01-03T03:52:20.106Z,4.50
2019-01-03T03:54:56.379Z,4.50
2019-01-03T03:57:29.563Z,4.60
2019-01-03T04:00:15.779Z,4.70
2019-01-03T04:03:00.942Z,4.60
2019-01-03T04:05:36.764Z,4.50
2019-01-03T04:08:09.587Z,4.50
2019-01-03T04:10:48.675Z,4.40
2019-01-03T04:13:35.317Z,4.40
2019-01-03T04:16:14.394Z,4.40
2019-01-03T04:18:44.573Z,4.20
2019-01-03T04:21:14.679Z,4.20
2019-01-03T04:23:50.872Z,4.10
2019-01-03T04:26:30.017Z,3.90
2019-01-03T04:29:00.315Z,4.00
2019-01-03T04:31:30.395Z,4.00
2019-01-03T04:34:16.944Z,4.00
2019-01-03T04:36:49.655Z,4.10
2019-01-03T04:39:28.739Z,4.10
2019-01-03T04:42:08.139Z,4.10
2019-01-03T04:44:38.331Z,4.20
2019-01-03T04:47:24.394Z,4.30
2019-01-03T04:49:57.494Z,4.40
2019-01-03T04:52:30.665Z,4.40
2019-01-03T04:55:12.831Z,4.50
2019-01-03T04:57:51.402Z,4.60
2019-01-03T05:00:21.514Z,4.60
2019-01-03T05:02:57.223Z,4.50
2019-01-03T05:05:30.002Z,4.50
2019-01-03T05:08:00.079Z,4.60
2019-01-03T05:10:36.186Z,4.60
2019-01-03T05:13:14.770Z,4.70
2019-01-03T05:16:00.788Z,4.80
2019-01-03T05:18:33.959Z,4.80
2019-01-03T05:21:20.094Z,4.90
2019-01-03T05:23:56.726Z,4.90
2019-01-03T05:26:24.933Z,4.90
2019-01-03T05:28:57.798Z,4.80
2019-01-03T05:31:30.822Z,4.70
2019-01-03T05:34:17.198Z,4.70
2019-01-03T05:36:50.283Z,4.70
2019-01-03T05:39:23.142Z,4.80
2019-01-03T05:41:53.365Z,4.80
2019-01-03T05:44:35.817Z,4.80
2019-01-03T05:47:22.550Z,4.70
2019-01-03T05:50:01.671Z,4.80
2019-01-03T05:52:40.899Z,4.80
2019-01-03T05:55:29.316Z,4.80
2019-01-03T05:58:02.191Z,4.90
2019-01-03T06:00:32.283Z,4.80
2019-01-03T06:03:14.103Z,4.80
2019-01-03T06:05:53.418Z,4.80
2019-01-03T06:08:32.269Z,4.80
2019-01-03T06:11:02.400Z,4.80
2019-01-03T06:13:38.278Z,4.80
2019-01-03T06:16:08.431Z,4.80
2019-01-03T06:18:50.549Z,4.80
2019-01-03T06:21:36.978Z,4.80
2019-01-03T06:24:07.054Z,4.70
2019-01-03T06:26:43.235Z,4.70
2019-01-03T06:29:16.381Z,4.70
2019-01-03T06:32:02.751Z,4.70
2019-01-03T06:34:35.660Z,4.70
2019-01-03T06:37:15.003Z,4.70
2019-01-03T06:39:45.150Z,4.70
2019-01-03T06:42:29.995Z,4.70
2019-01-03T06:45:16.551Z,4.60
2019-01-03T06:47:52.884Z,4.50
2019-01-03T06:50:29.191Z,4.30
2019-01-03T06:53:15.699Z,4.20
2019-01-03T06:55:54.967Z,4.10
2019-01-03T06:58:25.162Z,4.10
2019-01-03T07:00:55.239Z,4.10
2019-01-03T07:03:41.936Z,4.10
2019-01-03T07:06:30.221Z,4.10
2019-01-03T07:09:03.098Z,4.10
2019-01-03T07:11:51.208Z,4.10
2019-01-03T07:14:21.363Z,4.10
2019-01-03T07:16:51.471Z,4.20
2019-01-03T07:19:27.265Z,4.30
2019-01-03T07:21:57.362Z,4.30
2019-01-03T07:24:33.701Z,4.30
2019-01-03T07:27:09.832Z,4.30
2019-01-03T07:29:42.580Z,4.30
2019-01-03T07:32:21.285Z,4.30
2019-01-03T07:35:00.739Z,4.40
2019-01-03T07:37:30.831Z,4.40
2019-01-03T07:40:00.922Z,4.40
2019-01-03T07:42:47.643Z,4.30
2019-01-03T07:45:18.088Z,4.30
2019-01-03T07:47:51.007Z,4.30
2019-01-03T07:50:57.078Z,4.30
2019-01-03T07:53:40.396Z,4.30
2019-01-03T07:56:10.636Z,4.20
2019-01-03T07:58:50.266Z,4.30
2019-01-03T08:01:23.146Z,4.30
2019-01-03T08:04:05.169Z,4.40
2019-01-03T08:06:44.098Z,4.40
2019-01-03T08:09:30.624Z,4.40
2019-01-03T08:12:03.423Z,4.50
2019-01-03T08:14:33.535Z,4.60
2019-01-03T08:17:12.915Z,4.60
2019-01-03T08:19:52.182Z,4.80
2019-01-03T08:22:27.994Z,4.90
2019-01-03T08:25:14.935Z,5.00
2019-01-03T08:27:54.023Z,4.90
2019-01-03T08:30:40.866Z,4.80
2019-01-03T08:33:13.691Z,4.80
2019-01-03T08:36:00.530Z,4.80
2019-01-03T08:38:33.514Z,4.80
2019-01-03T08:41:03.601Z,4.80
2019-01-03T08:43:45.600Z,4.80
2019-01-03T08:49:19.735Z,5.00
2019-01-03T08:51:52.312Z,5.10
2019-01-03T08:54:37.834Z,5.10
2019-01-03T08:57:10.751Z,5.20
2019-01-03T08:59:49.823Z,5.30
2019-01-03T09:02:37.731Z,5.40
2019-01-03T09:05:10.455Z,5.40
2019-01-03T09:07:49.687Z,5.50
2019-01-03T09:10:31.968Z,5.60
2019-01-03T09:13:14.075Z,5.60
2019-01-03T09:15:49.890Z,5.70
2019-01-03T09:18:28.848Z,5.60
2019-01-03T09:21:05.243Z,5.60
2019-01-03T09:23:50.174Z,5.50
2019-01-03T09:26:20.279Z,5.60
2019-01-03T09:28:50.445Z,5.60
2019-01-03T09:31:36.774Z,5.70
2019-01-03T09:34:07.156Z,5.80
2019-01-03T09:36:46.429Z,5.90
2019-01-03T09:39:25.854Z,5.90
2019-01-03T09:41:55.930Z,5.90
2019-01-03T09:44:42.284Z,5.90
2019-01-03T09:47:10.787Z,5.80
2019-01-03T09:49:39.248Z,5.60
2019-01-03T09:52:07.688Z,5.60
2019-01-03T09:54:36.138Z,5.60
2019-01-03T09:57:04.884Z,5.60
2019-01-03T09:59:33.407Z,5.70
2019-01-03T10:02:01.886Z,5.80
2019-01-03T10:04:30.354Z,5.80
2019-01-03T10:06:58.982Z,5.80
2019-01-03T10:09:27.871Z,5.80
2019-01-03T10:11:56.314Z,5.90
2019-01-03T10:14:24.773Z,5.90
2019-01-03T10:16:53.575Z,6.00
2019-01-03T10:19:22.251Z,6.00
2019-01-03T10:21:50.790Z,6.10
2019-01-03T10:24:19.306Z,6.20
2019-01-03T10:26:47.771Z,6.20
2019-01-03T10:29:16.207Z,6.20
2019-01-03T10:31:44.658Z,6.20
2019-01-03T10:34:13.086Z,6.10
2019-01-03T10:36:41.541Z,6.10
2019-01-03T10:39:09.970Z,6.10
2019-01-03T10:41:38.429Z,6.10
2019-01-03T10:44:06.859Z,6.00
2019-01-03T10:46:35.331Z,5.90
2019-01-03T10:49:03.903Z,5.90
2019-01-03T10:51:32.419Z,5.90
2019-01-03T10:54:00.887Z,6.00
2019-01-03T10:56:29.788Z,6.10
2019-01-03T10:58:58.236Z,6.10
2019-01-03T11:01:26.675Z,6.20
2019-01-03T11:03:55.127Z,6.10
2019-01-03T11:06:23.572Z,6.20
2019-01-03T11:08:52.135Z,6.20
2019-01-03T11:11:20.570Z,6.20
2019-01-03T11:13:50.119Z,6.20
2019-01-03T11:16:18.618Z,6.20
2019-01-03T11:18:47.096Z,6.20
2019-01-03T11:21:15.599Z,6.30
2019-01-03T11:23:44.130Z,6.30
2019-01-03T11:26:12.563Z,6.30
2019-01-03T11:28:41.242Z,6.30
2019-01-03T11:31:09.679Z,6.30
2019-01-03T11:33:38.129Z,6.40
2019-01-03T11:36:06.667Z,6.50
2019-01-03T11:38:35.127Z,6.60
2019-01-03T11:41:03.563Z,6.70
2019-01-03T11:43:32.015Z,6.70
2019-01-03T11:46:00.477Z,6.60
2019-01-03T11:48:28.984Z,6.70
2019-01-03T11:50:57.560Z,6.70
2019-01-03T11:53:25.985Z,6.70
2019-01-03T11:55:54.439Z,6.70
2019-01-03T11:58:22.888Z,6.70
2019-01-03T12:00:51.347Z,6.70
2019-01-03T12:03:19.782Z,6.60
2019-01-03T12:05:48.338Z,6.60
2019-01-03T12:08:16.773Z,6.70
2019-01-03T12:10:45.294Z,6.70
2019-01-03T12:13:13.715Z,6.80
2019-01-03T12:15:42.173Z,6.80
2019-01-03T12:18:10.594Z,6.80
2019-01-03T12:20:39.043Z,6.70
2019-01-03T12:23:07.508Z,6.70
2019-01-03T12:25:35.959Z,6.70
2019-01-03T12:28:04.404Z,6.70
2019-01-03T12:30:32.996Z,6.70
2019-01-03T12:33:01.432Z,6.80
2019-01-03T12:35:29.953Z,6.90
2019-01-03T12:37:58.405Z,6.90
2019-01-03T12:40:26.832Z,6.80
2019-01-03T12:42:55.370Z,6.70
2019-01-03T12:45:23.804Z,6.70
2019-01-03T12:47:52.332Z,6.70
2019-01-03T12:50:20.866Z,6.70
2019-01-03T12:52:49.332Z,6.80
2019-01-03T12:55:17.898Z,6.80
2019-01-03T12:57:46.351Z,6.90
2019-01-03T13:00:14.790Z,6.90
2019-01-03T13:02:43.249Z,6.90
2019-01-03T13:05:11.681Z,6.80
2019-01-03T13:07:40.142Z,6.70
2019-01-03T13:10:09.045Z,6.80
2019-01-03T13:12:37.544Z,6.80
2019-01-03T13:15:06.795Z,6.90
2019-01-03T13:17:35.452Z,6.80
2019-01-03T13:20:04.562Z,6.80
2019-01-03T13:22:33.078Z,6.80
2019-01-03T13:25:01.898Z,6.90
2019-01-03T13:27:30.376Z,7.00
2019-01-03T13:29:58.891Z,7.10
2019-01-03T13:32:27.404Z,7.10
2019-01-03T13:34:55.824Z,7.10
2019-01-03T13:37:26.991Z,7.10
2019-01-03T13:39:55.419Z,7.00
2019-01-03T13:42:23.898Z,7.00
2019-01-03T13:44:52.343Z,7.10
2019-01-03T13:47:20.917Z,7.10
2019-01-03T13:49:49.417Z,7.10
2019-01-03T13:52:17.875Z,7.20
2019-01-03T13:54:46.305Z,7.20
2019-01-03T13:57:14.773Z,7.30
2019-01-03T13:59:43.268Z,7.40
2019-01-03T14:02:11.759Z,7.50
2019-01-03T14:04:40.230Z,7.60
2019-01-03T14:07:08.683Z,7.70
2019-01-03T14:09:37.122Z,7.70
2019-01-03T14:12:05.752Z,7.60
2019-01-03T14:14:34.210Z,7.50
2019-01-03T14:17:03.308Z,7.50
2019-01-03T14:19:31.907Z,7.60
2019-01-03T14:22:00.350Z,7.50
2019-01-03T14:24:28.821Z,7.40
2019-01-03T14:26:57.324Z,7.40
2019-01-03T14:29:25.775Z,7.30
2019-01-03T14:31:54.380Z,7.30
2019-01-03T14:34:22.839Z,7.30
2019-01-03T14:36:51.573Z,7.30
2019-01-03T14:39:20.051Z,7.10
2019-01-03T14:41:48.764Z,7.10
2019-01-03T14:44:17.210Z,7.00
2019-01-03T14:46:45.640Z,7.00
2019-01-03T14:49:14.122Z,6.90
2019-01-03T14:51:42.576Z,6.90
2019-01-03T14:54:11.095Z,6.80
2019-01-03T14:56:39.529Z,6.80
2019-01-03T14:59:07.973Z,6.80
2019-01-03T15:01:36.399Z,6.80
2019-01-03T15:04:05.329Z,6.80
2019-01-03T15:06:34.675Z,6.70
2019-01-03T15:09:04.502Z,6.70
2019-01-03T15:11:32.995Z,6.60
2019-01-03T15:14:01.455Z,6.70
2019-01-03T15:16:29.883Z,6.70
2019-01-03T15:18:58.334Z,6.70
2019-01-03T15:21:26.839Z,6.70
2019-01-03T15:23:55.349Z,6.70
2019-01-03T15:26:23.846Z,6.70
2019-01-03T15:28:52.318Z,6.70
2019-01-03T15:31:20.758Z,6.60
2019-01-03T15:33:49.238Z,6.60
2019-01-03T15:36:17.679Z,6.50
2019-01-03T15:38:46.158Z,6.50
2019-01-03T15:41:14.583Z,6.50
2019-01-03T15:43:43.114Z,6.50
2019-01-03T15:46:11.544Z,6.50
2019-01-03T15:48:39.995Z,6.50
2019-01-03T15:51:08.426Z,6.50
2019-01-03T15:53:36.871Z,6.50
2019-01-03T15:56:05.430Z,6.50
2019-01-03T15:58:33.880Z,6.50
2019-01-03T16:01:03.641Z,6.50
2019-01-03T16:03:32.065Z,6.50
2019-01-03T16:06:00.532Z,6.40
2019-01-03T16:08:28.967Z,6.50
2019-01-03T16:10:57.426Z,6.40
2019-01-03T16:13:25.986Z,6.50
2019-01-03T16:15:54.446Z,6.50
2019-01-03T16:18:22.977Z,6.40
2019-01-03T16:20:51.589Z,6.20
2019-01-03T16:23:20.603Z,6.00
2019-01-03T16:25:49.126Z,6.00
2019-01-03T16:28:17.563Z,6.00
2019-01-03T16:30:46.024Z,6.00
2019-01-03T16:33:14.460Z,6.00
2019-01-03T16:35:48.049Z,6.20
2019-01-03T16:38:13.294Z,5.90
2019-01-03T16:40:41.755Z,5.90
2019-01-03T16:43:11.710Z,5.80
2019-01-03T16:45:40.243Z,5.80
2019-01-03T16:48:08.678Z,5.90
2019-01-03T16:50:37.123Z,5.90
2019-01-03T16:53:05.559Z,5.90
2019-01-03T16:55:34.015Z,5.90
2019-01-03T16:58:02.441Z,5.80
2019-01-03T17:00:30.886Z,5.80
2019-01-03T17:02:59.322Z,5.70
2019-01-03T17:05:27.852Z,5.70
2019-01-03T17:07:56.328Z,5.70
2019-01-03T17:10:24.906Z,5.70
2019-01-03T17:12:53.401Z,5.70
2019-01-03T17:15:22.164Z,5.80
2019-01-03T17:17:50.598Z,5.80
2019-01-03T17:20:19.154Z,5.80
2019-01-03T17:22:47.603Z,5.80
2019-01-03T17:25:16.382Z,5.90
2019-01-03T17:27:44.932Z,6.00
2019-01-03T17:30:13.416Z,5.90
2019-01-03T17:32:42.291Z,5.90
2019-01-03T17:35:11.263Z,5.90
2019-01-03T17:37:39.787Z,5.90
2019-01-03T17:40:10.615Z,5.90
2019-01-03T17:42:39.738Z,5.90
2019-01-03T17:45:10.216Z,5.90
2019-01-03T17:47:38.749Z,5.90
2019-01-03T17:50:10.040Z,5.90
2019-01-03T17:52:38.641Z,5.90
2019-01-03T17:55:08.397Z,5.90
2019-01-03T17:57:36.866Z,5.90
2019-01-03T18:00:08.551Z,5.90
2019-01-03T18:02:37.319Z,5.90
2019-01-03T18:05:06.302Z,5.90
2019-01-03T18:07:34.767Z,5.90
2019-01-03T18:10:04.335Z,5.90
2019-01-03T18:12:32.887Z,5.90
2019-01-03T18:15:01.944Z,5.90
2019-01-03T18:17:30.394Z,5.90
2019-01-03T18:19:58.947Z,6.00
2019-01-03T18:22:27.431Z,6.00
2019-01-03T18:24:55.967Z,6.00
2019-01-03T18:27:24.479Z,6.00
2019-01-03T18:29:52.906Z,6.00
2019-01-03T18:32:21.362Z,6.10
2019-01-03T18:34:50.224Z,6.00
2019-01-03T18:37:18.711Z,6.00
2019-01-03T18:39:47.202Z,6.00
2019-01-03T18:42:15.654Z,5.90
2019-01-03T18:44:44.091Z,6.00
2019-01-03T18:47:12.563Z,6.00
2019-01-03T18:49:41.000Z,6.00
2019-01-03T18:52:09.739Z,5.90
2019-01-03T18:54:38.244Z,5.90
2019-01-03T18:57:06.775Z,5.90
2019-01-03T18:59:35.210Z,6.00
2019-01-03T19:02:03.668Z,6.00
2019-01-03T19:04:32.194Z,6.00
2019-01-03T19:07:00.663Z,6.00
2019-01-03T19:09:30.258Z,6.00
2019-01-03T19:11:58.722Z,6.10
2019-01-03T19:14:27.228Z,6.10
2019-01-03T19:16:55.715Z,6.20
2019-01-03T19:19:24.226Z,6.20
2019-01-03T19:21:52.676Z,6.20
2019-01-03T19:24:21.145Z,6.20
2019-01-03T19:26:49.665Z,6.10
2019-01-03T19:29:18.144Z,6.10
2019-01-03T19:31:46.662Z,6.10
2019-01-03T19:34:15.115Z,6.00
2019-01-03T19:36:43.638Z,6.00
2019-01-03T19:39:12.094Z,6.10
2019-01-03T19:41:40.520Z,6.00
2019-01-03T19:44:08.993Z,6.00
2019-01-03T19:46:37.435Z,5.90
2019-01-03T19:49:05.968Z,5.80
2019-01-03T19:51:34.440Z,5.70
2019-01-03T19:54:03.263Z,5.60
2019-01-03T19:56:31.724Z,5.60
2019-01-03T19:59:00.166Z,5.60
2019-01-03T20:01:28.671Z,5.70
2019-01-03T20:03:57.155Z,6.00
2019-01-03T20:06:25.611Z,5.70
2019-01-03T20:08:54.050Z,5.80
2019-01-03T20:11:22.525Z,5.80
2019-01-03T20:13:50.975Z,5.80
2019-01-03T20:16:19.533Z,5.80
2019-01-03T20:18:47.973Z,5.90
2019-01-03T20:21:16.434Z,5.90
2019-01-03T20:23:44.883Z,6.00
2019-01-03T20:26:14.379Z,6.10
2019-01-03T20:28:42.943Z,6.10
2019-01-03T20:31:11.412Z,5.90
2019-01-03T20:33:39.840Z,5.90
2019-01-03T20:36:08.463Z,5.80
2019-01-03T20:38:36.936Z,5.80
2019-01-03T20:41:05.461Z,5.80
2019-01-03T20:43:39.111Z,5.90
2019-01-03T20:46:05.428Z,6.00
2019-01-03T20:48:34.196Z,6.10
2019-01-03T20:51:02.723Z,6.00
2019-01-03T20:53:31.151Z,5.90
2019-01-03T20:55:59.652Z,5.80
2019-01-03T20:58:28.132Z,5.80
2019-01-03T21:00:56.598Z,5.80
2019-01-03T21:03:25.070Z,5.80
2019-01-03T21:05:53.607Z,5.90
2019-01-03T21:08:22.071Z,5.90
2019-01-03T21:10:50.549Z,5.90
2019-01-03T21:13:19.411Z,6.00
2019-01-03T21:15:48.165Z,6.10
2019-01-03T21:18:16.731Z,6.00
2019-01-03T21:20:45.150Z,6.10
2019-01-03T21:23:13.636Z,6.10
2019-01-03T21:25:42.274Z,6.20
2019-01-03T21:28:11.875Z,6.20
2019-01-03T21:30:41.227Z,6.20
2019-01-03T21:33:09.792Z,6.30
2019-01-03T21:35:38.271Z,6.30
2019-01-03T21:38:06.814Z,6.30
2019-01-03T21:40:35.348Z,6.30
2019-01-03T21:43:03.863Z,6.20
2019-01-03T21:45:32.367Z,6.20
2019-01-03T21:48:00.903Z,6.10
2019-01-03T21:50:29.343Z,6.00
2019-01-03T21:52:57.985Z,5.90
2019-01-03T21:55:26.546Z,5.90
2019-01-03T21:57:55.303Z,5.90
2019-01-03T22:00:23.998Z,5.90
2019-01-03T22:02:52.486Z,5.90
2019-01-03T22:05:20.939Z,5.90
2019-01-03T22:07:49.487Z,5.90
2019-01-03T22:10:17.983Z,5.90
2019-01-03T22:12:46.564Z,5.80
2019-01-03T22:15:15.082Z,5.70
2019-01-03T22:17:43.544Z,5.70
2019-01-03T22:20:11.978Z,5.60
2019-01-03T22:22:40.413Z,5.50
2019-01-03T22:25:09.176Z,5.50
2019-01-03T22:27:37.674Z,5.40
2019-01-03T22:30:09.359Z,5.30
2019-01-03T22:32:37.790Z,5.30
2019-01-03T22:35:07.170Z,5.20
2019-01-03T22:37:35.623Z,5.10
2019-01-03T22:40:05.314Z,5.10
2019-01-03T22:42:34.043Z,5.10
2019-01-03T22:45:02.567Z,5.10
2019-01-03T22:47:31.003Z,5.00
2019-01-03T22:49:59.459Z,5.00
2019-01-03T22:52:27.974Z,5.00
2019-01-03T22:54:56.711Z,4.90
2019-01-03T22:57:25.164Z,4.80
2019-01-03T22:59:53.619Z,4.80
2019-01-03T23:02:22.167Z,4.70
2019-01-03T23:04:50.616Z,4.70
2019-01-03T23:07:19.378Z,4.70
2019-01-03T23:09:47.977Z,4.70
2019-01-03T23:12:16.530Z,4.60
2019-01-03T23:14:44.962Z,4.60
2019-01-03T23:17:13.419Z,4.60
2019-01-03T23:19:42.032Z,4.50
2019-01-03T23:22:10.492Z,4.50
2019-01-03T23:24:40.116Z,4.40
2019-01-03T23:27:08.575Z,4.40
2019-01-03T23:29:37.075Z,4.30
2019-01-03T23:32:05.527Z,4.30
2019-01-03T23:34:33.971Z,4.30
2019-01-03T23:37:02.425Z,4.30
2019-01-03T23:39:32.012Z,4.30
2019-01-03T23:42:00.544Z,4.30
2019-01-03T23:44:28.988Z,4.30
2019-01-03T23:46:57.440Z,4.30
2019-01-03T23:49:25.974Z,4.30
2019-01-03T23:51:54.591Z,4.30
2019-01-03T23:54:23.200Z,4.30
2019-01-03T23:56:51.669Z,4.30
2019-01-03T23:59:20.107Z,4.30
